This is the latest recevied weather packets stored in our database for station/object DB0MW-13. If no packets are shown the sender has not sent any weather packets the latest 1 day(s).
| Time | Temp. | Humidity | Pressure | Rain* | Wind** | Luminosity | Snow |
|---|---|---|---|---|---|---|---|
| 1778102701 | 11.67° C | 87% | 1010 hPa | 0 mm | - | - | - |
| 1778102401 | 11.67° C | 87% | 1010 hPa | 0 mm | - | - | - |
| 1778102101 | 11.67° C | 88% | 1010 hPa | 0 mm | - | - | - |
| 1778101801 | 11.67° C | 88% | 1010 hPa | 0 mm | - | - | - |
| 1778101501 | 11.67° C | 88% | 1009.9 hPa | 0 mm | - | - | - |
| 1778100901 | 11.67° C | 88% | 1009.7 hPa | 0 mm | - | - | - |
| 1778098500 | 12.22° C | 88% | 1009.4 hPa | 0 mm | - | - | - |
| 1778094901 | 12.78° C | 87% | 1008.9 hPa | 0 mm | - | - | - |
| 1778094601 | 13.33° C | 87% | 1008.8 hPa | 0 mm | - | - | - |
| 1778094301 | 13.33° C | 87% | 1008.8 hPa | 0 mm | - | - | - |
| 1778094001 | 13.33° C | 87% | 1008.6 hPa | 0 mm | - | - | - |
| 1778093701 | 13.33° C | 87% | 1008.6 hPa | 0 mm | - | - | - |
| 1778093401 | 13.33° C | 88% | 1008.4 hPa | 0 mm | - | - | - |
| 1778088601 | 14.44° C | 89% | 1007.4 hPa | 1.27 mm | - | - | - |
| 1778087701 | 14.44° C | 89% | 1007.5 hPa | 1.27 mm | - | - | - |
| 1778087401 | 14.44° C | 89% | 1007.4 hPa | 1.27 mm | - | - | - |
| 1778087101 | 15° C | 89% | 1007.2 hPa | 1.27 mm | - | - | - |
| 1778086501 | 15° C | 88% | 1007.5 hPa | 1.27 mm | - | - | - |
| 1778081101 | 16.67° C | 80% | 1007 hPa | 0.76 mm | - | - | - |
| 1778079901 | 17.78° C | 70% | 1006.9 hPa | 0 mm | - | - | - |
| 1778079601 | 17.78° C | 68% | 1006.8 hPa | 0 mm | - | - | - |
| 1778079301 | 17.78° C | 66% | 1006.6 hPa | 0 mm | - | - | - |
| 1778079001 | 17.78° C | 64% | 1006.5 hPa | 0 mm | - | - | - |
| 1778078701 | 18.33° C | 63% | 1006.6 hPa | 0 mm | - | - | - |
| 1778078401 | 18.33° C | 61% | 1006.5 hPa | 0 mm | - | - | - |
* Rain latest hour (hover to see other rain measurements)
** Current wind speed in m/s (hover to see current wind gust speed)